sensor_id;sensor_type;location;lat;lon;timestamp;temperature;humidity
59505;DHT22;45321;53.200;5.814;2022-07-11T00:02:20;18.00;78.50
59505;DHT22;45321;53.200;5.814;2022-07-11T00:04:45;18.00;78.60
59505;DHT22;45321;53.200;5.814;2022-07-11T00:07:12;18.00;78.90
59505;DHT22;45321;53.200;5.814;2022-07-11T00:09:38;18.00;78.30
59505;DHT22;45321;53.200;5.814;2022-07-11T00:12:05;18.00;78.90
59505;DHT22;45321;53.200;5.814;2022-07-11T00:14:32;18.00;78.90
59505;DHT22;45321;53.200;5.814;2022-07-11T00:16:57;18.00;79.10
59505;DHT22;45321;53.200;5.814;2022-07-11T00:19:23;17.90;79.40
59505;DHT22;45321;53.200;5.814;2022-07-11T00:21:50;18.00;79.40
59505;DHT22;45321;53.200;5.814;2022-07-11T00:24:17;17.90;79.70
59505;DHT22;45321;53.200;5.814;2022-07-11T00:26:46;17.90;79.90
59505;DHT22;45321;53.200;5.814;2022-07-11T00:29:12;17.90;78.70
59505;DHT22;45321;53.200;5.814;2022-07-11T00:31:37;17.90;79.90
59505;DHT22;45321;53.200;5.814;2022-07-11T00:34:03;17.90;79.90
59505;DHT22;45321;53.200;5.814;2022-07-11T00:36:29;17.90;80.10
59505;DHT22;45321;53.200;5.814;2022-07-11T00:38:55;17.80;79.90
59505;DHT22;45321;53.200;5.814;2022-07-11T00:41:21;17.90;79.60
59505;DHT22;45321;53.200;5.814;2022-07-11T00:43:54;17.90;79.70
59505;DHT22;45321;53.200;5.814;2022-07-11T00:46:21;17.90;79.80
59505;DHT22;45321;53.200;5.814;2022-07-11T00:48:47;17.90;80.30
59505;DHT22;45321;53.200;5.814;2022-07-11T00:51:13;17.90;80.30
59505;DHT22;45321;53.200;5.814;2022-07-11T00:53:40;17.90;80.40
59505;DHT22;45321;53.200;5.814;2022-07-11T00:56:07;17.80;80.30
59505;DHT22;45321;53.200;5.814;2022-07-11T00:58:35;17.90;80.40
59505;DHT22;45321;53.200;5.814;2022-07-11T01:01:02;17.80;80.60
59505;DHT22;45321;53.200;5.814;2022-07-11T01:03:28;17.90;80.10
59505;DHT22;45321;53.200;5.814;2022-07-11T01:05:54;17.80;80.40
59505;DHT22;45321;53.200;5.814;2022-07-11T01:08:19;17.80;80.50
59505;DHT22;45321;53.200;5.814;2022-07-11T01:10:46;17.80;81.00
59505;DHT22;45321;53.200;5.814;2022-07-11T01:13:12;17.80;81.10
59505;DHT22;45321;53.200;5.814;2022-07-11T01:15:37;17.80;81.40
59505;DHT22;45321;53.200;5.814;2022-07-11T01:18:04;17.80;81.40
59505;DHT22;45321;53.200;5.814;2022-07-11T01:20:30;17.80;81.20
59505;DHT22;45321;53.200;5.814;2022-07-11T01:23:03;17.80;81.90
59505;DHT22;45321;53.200;5.814;2022-07-11T01:25:29;17.80;82.40
59505;DHT22;45321;53.200;5.814;2022-07-11T01:27:59;17.70;82.50
59505;DHT22;45321;53.200;5.814;2022-07-11T01:30:30;17.70;82.10
59505;DHT22;45321;53.200;5.814;2022-07-11T01:32:57;17.70;82.30
59505;DHT22;45321;53.200;5.814;2022-07-11T01:35:24;17.70;82.90
59505;DHT22;45321;53.200;5.814;2022-07-11T01:37:49;17.70;83.10
59505;DHT22;45321;53.200;5.814;2022-07-11T01:40:16;17.70;82.70
59505;DHT22;45321;53.200;5.814;2022-07-11T01:42:42;17.70;83.20
59505;DHT22;45321;53.200;5.814;2022-07-11T01:45:12;17.70;82.50
59505;DHT22;45321;53.200;5.814;2022-07-11T01:47:38;17.70;82.90
59505;DHT22;45321;53.200;5.814;2022-07-11T01:50:05;17.70;82.60
59505;DHT22;45321;53.200;5.814;2022-07-11T01:52:31;17.60;82.60
59505;DHT22;45321;53.200;5.814;2022-07-11T01:54:57;17.70;82.70
59505;DHT22;45321;53.200;5.814;2022-07-11T01:57:23;17.70;82.90
59505;DHT22;45321;53.200;5.814;2022-07-11T01:59:49;17.70;83.40
59505;DHT22;45321;53.200;5.814;2022-07-11T02:02:16;17.60;83.20
59505;DHT22;45321;53.200;5.814;2022-07-11T02:04:42;17.60;83.80
59505;DHT22;45321;53.200;5.814;2022-07-11T02:07:07;17.70;83.60
59505;DHT22;45321;53.200;5.814;2022-07-11T02:09:33;17.60;83.60
59505;DHT22;45321;53.200;5.814;2022-07-11T02:12:00;17.70;83.20
59505;DHT22;45321;53.200;5.814;2022-07-11T02:14:25;17.60;83.60
59505;DHT22;45321;53.200;5.814;2022-07-11T02:16:51;17.70;83.00
59505;DHT22;45321;53.200;5.814;2022-07-11T02:19:17;17.70;83.60
59505;DHT22;45321;53.200;5.814;2022-07-11T02:21:43;17.70;83.70
59505;DHT22;45321;53.200;5.814;2022-07-11T02:24:09;17.70;83.80
59505;DHT22;45321;53.200;5.814;2022-07-11T02:26:35;17.60;83.50
59505;DHT22;45321;53.200;5.814;2022-07-11T02:29:01;17.70;83.70
59505;DHT22;45321;53.200;5.814;2022-07-11T02:31:27;17.60;83.80
59505;DHT22;45321;53.200;5.814;2022-07-11T02:33:53;17.70;84.00
59505;DHT22;45321;53.200;5.814;2022-07-11T02:36:21;17.70;84.10
59505;DHT22;45321;53.200;5.814;2022-07-11T02:38:47;17.70;84.00
59505;DHT22;45321;53.200;5.814;2022-07-11T02:41:13;17.70;83.50
59505;DHT22;45321;53.200;5.814;2022-07-11T02:43:38;17.60;84.20
59505;DHT22;45321;53.200;5.814;2022-07-11T02:46:04;17.60;84.30
59505;DHT22;45321;53.200;5.814;2022-07-11T02:48:31;17.60;83.80
59505;DHT22;45321;53.200;5.814;2022-07-11T02:50:56;17.60;83.70
59505;DHT22;45321;53.200;5.814;2022-07-11T02:53:22;17.60;84.10
59505;DHT22;45321;53.200;5.814;2022-07-11T02:55:48;17.60;84.20
59505;DHT22;45321;53.200;5.814;2022-07-11T02:58:14;17.50;84.30
59505;DHT22;45321;53.200;5.814;2022-07-11T03:00:40;17.60;84.20
59505;DHT22;45321;53.200;5.814;2022-07-11T03:03:06;17.50;84.20
59505;DHT22;45321;53.200;5.814;2022-07-11T03:05:32;17.50;83.40
59505;DHT22;45321;53.200;5.814;2022-07-11T03:07:57;17.50;83.90
59505;DHT22;45321;53.200;5.814;2022-07-11T03:10:23;17.50;83.80
59505;DHT22;45321;53.200;5.814;2022-07-11T03:12:49;17.50;83.60
59505;DHT22;45321;53.200;5.814;2022-07-11T03:15:15;17.50;84.40
59505;DHT22;45321;53.200;5.814;2022-07-11T03:17:41;17.50;84.60
59505;DHT22;45321;53.200;5.814;2022-07-11T03:20:07;17.50;83.80
59505;DHT22;45321;53.200;5.814;2022-07-11T03:22:34;17.50;84.30
59505;DHT22;45321;53.200;5.814;2022-07-11T03:25:00;17.40;84.30
59505;DHT22;45321;53.200;5.814;2022-07-11T03:27:28;17.50;83.90
59505;DHT22;45321;53.200;5.814;2022-07-11T03:29:54;17.40;83.70
59505;DHT22;45321;53.200;5.814;2022-07-11T03:32:20;17.40;83.80
59505;DHT22;45321;53.200;5.814;2022-07-11T03:34:47;17.40;84.00
59505;DHT22;45321;53.200;5.814;2022-07-11T03:37:32;17.30;84.10
59505;DHT22;45321;53.200;5.814;2022-07-11T03:39:58;17.30;84.20
59505;DHT22;45321;53.200;5.814;2022-07-11T03:42:24;17.40;84.60
59505;DHT22;45321;53.200;5.814;2022-07-11T03:44:50;17.30;84.10
59505;DHT22;45321;53.200;5.814;2022-07-11T03:47:17;17.30;84.40
59505;DHT22;45321;53.200;5.814;2022-07-11T03:49:43;17.30;84.50
59505;DHT22;45321;53.200;5.814;2022-07-11T03:52:09;17.30;84.50
59505;DHT22;45321;53.200;5.814;2022-07-11T03:54:34;17.30;84.70
59505;DHT22;45321;53.200;5.814;2022-07-11T03:57:00;17.30;85.00
59505;DHT22;45321;53.200;5.814;2022-07-11T03:59:26;17.30;84.70
59505;DHT22;45321;53.200;5.814;2022-07-11T04:01:51;17.30;84.60
59505;DHT22;45321;53.200;5.814;2022-07-11T04:04:17;17.30;84.90
59505;DHT22;45321;53.200;5.814;2022-07-11T04:06:43;17.30;85.20
59505;DHT22;45321;53.200;5.814;2022-07-11T04:09:09;17.30;85.40
59505;DHT22;45321;53.200;5.814;2022-07-11T04:11:36;17.30;85.30
59505;DHT22;45321;53.200;5.814;2022-07-11T04:14:01;17.30;85.00
59505;DHT22;45321;53.200;5.814;2022-07-11T04:16:27;17.30;85.40
59505;DHT22;45321;53.200;5.814;2022-07-11T04:18:53;17.30;85.20
59505;DHT22;45321;53.200;5.814;2022-07-11T04:21:19;17.30;85.20
59505;DHT22;45321;53.200;5.814;2022-07-11T04:23:44;17.40;84.90
59505;DHT22;45321;53.200;5.814;2022-07-11T04:26:10;17.30;85.10
59505;DHT22;45321;53.200;5.814;2022-07-11T04:28:36;17.30;85.40
59505;DHT22;45321;53.200;5.814;2022-07-11T04:31:02;17.30;85.70
59505;DHT22;45321;53.200;5.814;2022-07-11T04:33:28;17.30;85.10
59505;DHT22;45321;53.200;5.814;2022-07-11T04:35:54;17.30;84.60
59505;DHT22;45321;53.200;5.814;2022-07-11T04:38:20;17.30;85.30
59505;DHT22;45321;53.200;5.814;2022-07-11T04:40:47;17.30;85.60
59505;DHT22;45321;53.200;5.814;2022-07-11T04:43:14;17.30;85.50
59505;DHT22;45321;53.200;5.814;2022-07-11T04:45:40;17.30;85.30
59505;DHT22;45321;53.200;5.814;2022-07-11T04:48:06;17.30;85.50
59505;DHT22;45321;53.200;5.814;2022-07-11T04:50:31;17.30;85.70
59505;DHT22;45321;53.200;5.814;2022-07-11T04:52:57;17.40;85.30
59505;DHT22;45321;53.200;5.814;2022-07-11T04:55:23;17.40;84.80
59505;DHT22;45321;53.200;5.814;2022-07-11T04:57:49;17.30;85.50
59505;DHT22;45321;53.200;5.814;2022-07-11T05:00:15;17.30;85.70
59505;DHT22;45321;53.200;5.814;2022-07-11T05:02:41;17.30;85.60
59505;DHT22;45321;53.200;5.814;2022-07-11T05:05:07;17.30;85.60
59505;DHT22;45321;53.200;5.814;2022-07-11T05:07:33;17.40;85.10
59505;DHT22;45321;53.200;5.814;2022-07-11T05:09:58;17.40;85.70
59505;DHT22;45321;53.200;5.814;2022-07-11T05:12:24;17.40;85.90
59505;DHT22;45321;53.200;5.814;2022-07-11T05:14:50;17.40;85.80
59505;DHT22;45321;53.200;5.814;2022-07-11T05:17:16;17.50;85.90
59505;DHT22;45321;53.200;5.814;2022-07-11T05:19:41;17.40;85.40
59505;DHT22;45321;53.200;5.814;2022-07-11T05:22:07;17.50;85.30
59505;DHT22;45321;53.200;5.814;2022-07-11T05:24:33;17.50;86.20
59505;DHT22;45321;53.200;5.814;2022-07-11T05:26:59;17.50;86.50
59505;DHT22;45321;53.200;5.814;2022-07-11T05:29:24;17.50;86.40
59505;DHT22;45321;53.200;5.814;2022-07-11T05:31:50;17.50;85.60
59505;DHT22;45321;53.200;5.814;2022-07-11T05:34:19;17.50;86.00
59505;DHT22;45321;53.200;5.814;2022-07-11T05:36:46;17.50;85.70
59505;DHT22;45321;53.200;5.814;2022-07-11T05:39:13;17.60;85.40
59505;DHT22;45321;53.200;5.814;2022-07-11T05:41:38;17.60;85.30
59505;DHT22;45321;53.200;5.814;2022-07-11T05:44:04;17.60;85.30
59505;DHT22;45321;53.200;5.814;2022-07-11T05:46:30;17.60;85.20
59505;DHT22;45321;53.200;5.814;2022-07-11T05:48:55;17.60;85.00
59505;DHT22;45321;53.200;5.814;2022-07-11T05:51:21;17.50;85.20
59505;DHT22;45321;53.200;5.814;2022-07-11T05:53:47;17.50;85.50
59505;DHT22;45321;53.200;5.814;2022-07-11T05:56:12;17.50;84.80
59505;DHT22;45321;53.200;5.814;2022-07-11T05:58:38;17.50;85.90
59505;DHT22;45321;53.200;5.814;2022-07-11T06:01:04;17.50;86.00
59505;DHT22;45321;53.200;5.814;2022-07-11T06:03:29;17.50;85.50
59505;DHT22;45321;53.200;5.814;2022-07-11T06:05:55;17.50;85.80
59505;DHT22;45321;53.200;5.814;2022-07-11T06:08:21;17.50;85.90
59505;DHT22;45321;53.200;5.814;2022-07-11T06:11:06;17.60;86.10
59505;DHT22;45321;53.200;5.814;2022-07-11T06:13:31;17.70;85.70
59505;DHT22;45321;53.200;5.814;2022-07-11T06:15:58;17.70;85.90
59505;DHT22;45321;53.200;5.814;2022-07-11T06:18:23;17.70;86.00
59505;DHT22;45321;53.200;5.814;2022-07-11T06:20:50;17.80;85.30
59505;DHT22;45321;53.200;5.814;2022-07-11T06:23:16;17.80;85.20
59505;DHT22;45321;53.200;5.814;2022-07-11T06:25:42;17.80;85.50
59505;DHT22;45321;53.200;5.814;2022-07-11T06:28:07;17.90;85.60
59505;DHT22;45321;53.200;5.814;2022-07-11T06:30:33;17.90;85.60
59505;DHT22;45321;53.200;5.814;2022-07-11T06:33:00;17.90;85.00
59505;DHT22;45321;53.200;5.814;2022-07-11T06:35:26;17.80;85.40
59505;DHT22;45321;53.200;5.814;2022-07-11T06:37:51;17.90;85.20
59505;DHT22;45321;53.200;5.814;2022-07-11T06:40:17;17.90;85.40
59505;DHT22;45321;53.200;5.814;2022-07-11T06:42:43;18.00;85.00
59505;DHT22;45321;53.200;5.814;2022-07-11T06:45:10;18.00;85.70
59505;DHT22;45321;53.200;5.814;2022-07-11T06:47:35;18.10;85.90
59505;DHT22;45321;53.200;5.814;2022-07-11T06:50:02;18.20;84.90
59505;DHT22;45321;53.200;5.814;2022-07-11T06:52:28;18.20;85.80
59505;DHT22;45321;53.200;5.814;2022-07-11T06:54:53;18.20;84.60
59505;DHT22;45321;53.200;5.814;2022-07-11T06:57:19;18.30;84.90
59505;DHT22;45321;53.200;5.814;2022-07-11T06:59:45;18.40;84.50
59505;DHT22;45321;53.200;5.814;2022-07-11T07:02:11;18.50;85.10
59505;DHT22;45321;53.200;5.814;2022-07-11T07:04:36;18.60;84.50
59505;DHT22;45321;53.200;5.814;2022-07-11T07:07:02;18.60;84.40
59505;DHT22;45321;53.200;5.814;2022-07-11T07:09:28;18.60;84.50
59505;DHT22;45321;53.200;5.814;2022-07-11T07:11:54;18.50;84.70
59505;DHT22;45321;53.200;5.814;2022-07-11T07:14:21;18.60;84.20
59505;DHT22;45321;53.200;5.814;2022-07-11T07:16:47;18.60;84.30
59505;DHT22;45321;53.200;5.814;2022-07-11T07:19:13;18.60;84.40
59505;DHT22;45321;53.200;5.814;2022-07-11T07:21:39;18.60;84.10
59505;DHT22;45321;53.200;5.814;2022-07-11T07:24:04;18.70;84.80
59505;DHT22;45321;53.200;5.814;2022-07-11T07:26:31;18.80;84.30
59505;DHT22;45321;53.200;5.814;2022-07-11T07:28:57;18.80;83.10
59505;DHT22;45321;53.200;5.814;2022-07-11T07:31:23;18.80;82.90
59505;DHT22;45321;53.200;5.814;2022-07-11T07:33:49;18.80;82.70
59505;DHT22;45321;53.200;5.814;2022-07-11T07:36:15;18.80;82.80
59505;DHT22;45321;53.200;5.814;2022-07-11T07:38:44;18.80;83.30
59505;DHT22;45321;53.200;5.814;2022-07-11T07:41:13;18.80;83.20
59505;DHT22;45321;53.200;5.814;2022-07-11T07:43:39;18.80;83.30
59505;DHT22;45321;53.200;5.814;2022-07-11T07:46:05;18.80;82.50
59505;DHT22;45321;53.200;5.814;2022-07-11T07:48:31;18.80;82.40
59505;DHT22;45321;53.200;5.814;2022-07-11T07:50:56;18.80;82.20
59505;DHT22;45321;53.200;5.814;2022-07-11T07:53:22;18.80;82.80
59505;DHT22;45321;53.200;5.814;2022-07-11T07:55:48;18.80;82.60
59505;DHT22;45321;53.200;5.814;2022-07-11T07:58:15;18.80;82.50
59505;DHT22;45321;53.200;5.814;2022-07-11T08:00:40;18.80;82.40
59505;DHT22;45321;53.200;5.814;2022-07-11T08:03:25;18.70;82.50
59505;DHT22;45321;53.200;5.814;2022-07-11T08:05:50;18.70;82.40
59505;DHT22;45321;53.200;5.814;2022-07-11T08:08:16;18.70;82.30
59505;DHT22;45321;53.200;5.814;2022-07-11T08:10:42;18.70;82.70
59505;DHT22;45321;53.200;5.814;2022-07-11T08:13:08;18.70;82.30
59505;DHT22;45321;53.200;5.814;2022-07-11T08:15:33;18.70;82.60
59505;DHT22;45321;53.200;5.814;2022-07-11T08:17:59;18.80;83.10
59505;DHT22;45321;53.200;5.814;2022-07-11T08:20:25;18.80;81.90
59505;DHT22;45321;53.200;5.814;2022-07-11T08:22:50;18.80;82.30
59505;DHT22;45321;53.200;5.814;2022-07-11T08:25:16;18.90;82.10
59505;DHT22;45321;53.200;5.814;2022-07-11T08:27:42;19.00;82.00
59505;DHT22;45321;53.200;5.814;2022-07-11T08:30:09;19.00;82.40
59505;DHT22;45321;53.200;5.814;2022-07-11T08:32:39;19.10;82.10
59505;DHT22;45321;53.200;5.814;2022-07-11T08:35:06;19.10;81.70
59505;DHT22;45321;53.200;5.814;2022-07-11T08:37:32;19.20;82.20
59505;DHT22;45321;53.200;5.814;2022-07-11T08:39:58;19.30;81.20
59505;DHT22;45321;53.200;5.814;2022-07-11T08:42:28;19.20;81.40
59505;DHT22;45321;53.200;5.814;2022-07-11T08:44:55;19.20;81.30
59505;DHT22;45321;53.200;5.814;2022-07-11T08:47:22;19.10;81.50
59505;DHT22;45321;53.200;5.814;2022-07-11T08:49:48;19.20;82.10
59505;DHT22;45321;53.200;5.814;2022-07-11T08:52:15;19.10;81.30
59505;DHT22;45321;53.200;5.814;2022-07-11T08:54:41;19.10;81.00
59505;DHT22;45321;53.200;5.814;2022-07-11T08:57:07;19.20;81.70
59505;DHT22;45321;53.200;5.814;2022-07-11T08:59:34;19.30;82.10
59505;DHT22;45321;53.200;5.814;2022-07-11T09:02:05;19.50;81.70
59505;DHT22;45321;53.200;5.814;2022-07-11T09:04:31;19.70;80.90
59505;DHT22;45321;53.200;5.814;2022-07-11T09:07:00;19.80;80.20
59505;DHT22;45321;53.200;5.814;2022-07-11T09:09:28;20.00;80.00
59505;DHT22;45321;53.200;5.814;2022-07-11T09:11:55;20.20;78.90
59505;DHT22;45321;53.200;5.814;2022-07-11T09:17:05;20.20;78.70
59505;DHT22;45321;53.200;5.814;2022-07-11T09:19:35;20.20;77.80
59505;DHT22;45321;53.200;5.814;2022-07-11T09:22:05;20.10;78.10
59505;DHT22;45321;53.200;5.814;2022-07-11T09:27:48;20.00;77.90
59505;DHT22;45321;53.200;5.814;2022-07-11T09:33:06;19.90;79.10
59505;DHT22;45321;53.200;5.814;2022-07-11T09:35:36;19.90;77.80
59505;DHT22;45321;53.200;5.814;2022-07-11T09:38:04;20.00;78.30
59505;DHT22;45321;53.200;5.814;2022-07-11T09:40:30;20.20;79.10
59505;DHT22;45321;53.200;5.814;2022-07-11T09:42:57;20.30;78.40
59505;DHT22;45321;53.200;5.814;2022-07-11T09:45:30;20.30;77.80
59505;DHT22;45321;53.200;5.814;2022-07-11T09:48:15;20.30;77.90
59505;DHT22;45321;53.200;5.814;2022-07-11T09:50:54;20.40;77.70
59505;DHT22;45321;53.200;5.814;2022-07-11T09:53:21;20.30;77.50
59505;DHT22;45321;53.200;5.814;2022-07-11T09:55:47;20.20;77.50
59505;DHT22;45321;53.200;5.814;2022-07-11T09:58:15;20.20;77.60
59505;DHT22;45321;53.200;5.814;2022-07-11T10:00:42;20.20;77.70
59505;DHT22;45321;53.200;5.814;2022-07-11T10:03:09;20.20;77.90
59505;DHT22;45321;53.200;5.814;2022-07-11T10:05:36;20.30;78.60
59505;DHT22;45321;53.200;5.814;2022-07-11T10:08:03;20.30;77.70
59505;DHT22;45321;53.200;5.814;2022-07-11T10:10:30;20.30;77.50
59505;DHT22;45321;53.200;5.814;2022-07-11T10:12:57;20.30;77.60
59505;DHT22;45321;53.200;5.814;2022-07-11T10:15:36;20.30;77.70
59505;DHT22;45321;53.200;5.814;2022-07-11T10:20:58;20.40;77.50
59505;DHT22;45321;53.200;5.814;2022-07-11T10:23:38;20.40;77.50
59505;DHT22;45321;53.200;5.814;2022-07-11T10:26:20;20.50;77.60
59505;DHT22;45321;53.200;5.814;2022-07-11T10:28:59;20.50;77.00
59505;DHT22;45321;53.200;5.814;2022-07-11T10:31:26;20.40;77.20
59505;DHT22;45321;53.200;5.814;2022-07-11T10:34:05;20.40;77.50
59505;DHT22;45321;53.200;5.814;2022-07-11T10:36:33;20.60;77.70
59505;DHT22;45321;53.200;5.814;2022-07-11T10:39:18;20.70;77.00
59505;DHT22;45321;53.200;5.814;2022-07-11T10:41:44;20.80;76.50
59505;DHT22;45321;53.200;5.814;2022-07-11T10:44:11;20.90;75.80
59505;DHT22;45321;53.200;5.814;2022-07-11T10:46:37;20.90;76.10
59505;DHT22;45321;53.200;5.814;2022-07-11T10:49:16;20.90;76.10
59505;DHT22;45321;53.200;5.814;2022-07-11T11:00:06;20.80;76.60
59505;DHT22;45321;53.200;5.814;2022-07-11T11:11:02;20.90;75.60
59505;DHT22;45321;53.200;5.814;2022-07-11T11:13:28;20.90;75.50
59505;DHT22;45321;53.200;5.814;2022-07-11T11:16:02;20.90;75.40
59505;DHT22;45321;53.200;5.814;2022-07-11T11:23:35;20.90;76.00
59505;DHT22;45321;53.200;5.814;2022-07-11T11:26:20;20.90;75.40
59505;DHT22;45321;53.200;5.814;2022-07-11T11:31:22;20.90;75.20
59505;DHT22;45321;53.200;5.814;2022-07-11T11:33:48;21.00;75.20
59505;DHT22;45321;53.200;5.814;2022-07-11T11:36:19;21.00;76.20
59505;DHT22;45321;53.200;5.814;2022-07-11T11:38:46;21.20;76.00
59505;DHT22;45321;53.200;5.814;2022-07-11T11:41:29;21.20;75.80
59505;DHT22;45321;53.200;5.814;2022-07-11T11:43:57;21.20;75.50
59505;DHT22;45321;53.200;5.814;2022-07-11T11:46:29;21.30;75.40
59505;DHT22;45321;53.200;5.814;2022-07-11T11:48:59;21.20;75.20
59505;DHT22;45321;53.200;5.814;2022-07-11T11:51:29;21.30;75.10
59505;DHT22;45321;53.200;5.814;2022-07-11T11:54:01;21.30;75.30
59505;DHT22;45321;53.200;5.814;2022-07-11T11:56:33;21.30;75.70
59505;DHT22;45321;53.200;5.814;2022-07-11T11:59:11;21.20;75.40
59505;DHT22;45321;53.200;5.814;2022-07-11T12:01:45;21.20;75.30
59505;DHT22;45321;53.200;5.814;2022-07-11T12:04:12;21.20;75.00
59505;DHT22;45321;53.200;5.814;2022-07-11T12:06:45;21.20;74.90
59505;DHT22;45321;53.200;5.814;2022-07-11T12:09:14;21.30;75.30
59505;DHT22;45321;53.200;5.814;2022-07-11T12:11:43;21.30;74.30
59505;DHT22;45321;53.200;5.814;2022-07-11T12:14:11;21.30;74.90
59505;DHT22;45321;53.200;5.814;2022-07-11T12:16:45;21.30;74.00
59505;DHT22;45321;53.200;5.814;2022-07-11T12:19:19;21.40;73.90
59505;DHT22;45321;53.200;5.814;2022-07-11T12:21:48;21.50;73.90
59505;DHT22;45321;53.200;5.814;2022-07-11T12:24:22;21.50;73.90
59505;DHT22;45321;53.200;5.814;2022-07-11T12:26:48;21.40;73.90
59505;DHT22;45321;53.200;5.814;2022-07-11T12:29:21;21.40;74.50
59505;DHT22;45321;53.200;5.814;2022-07-11T12:31:57;21.30;73.90
59505;DHT22;45321;53.200;5.814;2022-07-11T12:37:06;21.30;73.40
59505;DHT22;45321;53.200;5.814;2022-07-11T12:39:33;21.40;73.60
59505;DHT22;45321;53.200;5.814;2022-07-11T12:42:00;21.40;73.50
59505;DHT22;45321;53.200;5.814;2022-07-11T12:44:27;21.40;73.50
59505;DHT22;45321;53.200;5.814;2022-07-11T12:47:12;21.50;73.90
59505;DHT22;45321;53.200;5.814;2022-07-11T12:49:39;21.40;73.40
59505;DHT22;45321;53.200;5.814;2022-07-11T12:52:10;21.40;73.50
59505;DHT22;45321;53.200;5.814;2022-07-11T12:54:36;21.30;73.50
59505;DHT22;45321;53.200;5.814;2022-07-11T12:57:02;21.40;73.60
59505;DHT22;45321;53.200;5.814;2022-07-11T12:59:29;21.50;73.20
59505;DHT22;45321;53.200;5.814;2022-07-11T13:01:56;21.50;72.90
59505;DHT22;45321;53.200;5.814;2022-07-11T13:04:38;21.50;73.50
59505;DHT22;45321;53.200;5.814;2022-07-11T13:07:24;21.50;73.50
59505;DHT22;45321;53.200;5.814;2022-07-11T13:10:11;21.40;73.40
59505;DHT22;45321;53.200;5.814;2022-07-11T13:12:37;21.40;73.80
59505;DHT22;45321;53.200;5.814;2022-07-11T13:15:05;21.30;73.00
59505;DHT22;45321;53.200;5.814;2022-07-11T13:17:42;21.30;73.50
59505;DHT22;45321;53.200;5.814;2022-07-11T13:20:10;21.30;73.70
59505;DHT22;45321;53.200;5.814;2022-07-11T13:22:38;21.30;74.20
59505;DHT22;45321;53.200;5.814;2022-07-11T13:25:04;21.30;73.90
59505;DHT22;45321;53.200;5.814;2022-07-11T13:27:30;21.20;73.90
59505;DHT22;45321;53.200;5.814;2022-07-11T13:29:56;21.20;73.90
59505;DHT22;45321;53.200;5.814;2022-07-11T13:32:23;21.20;73.80
59505;DHT22;45321;53.200;5.814;2022-07-11T13:34:48;21.30;74.00
59505;DHT22;45321;53.200;5.814;2022-07-11T13:37:18;21.30;73.90
59505;DHT22;45321;53.200;5.814;2022-07-11T13:39:43;21.40;73.90
59505;DHT22;45321;53.200;5.814;2022-07-11T13:42:09;21.40;73.60
59505;DHT22;45321;53.200;5.814;2022-07-11T13:44:35;21.30;74.00
59505;DHT22;45321;53.200;5.814;2022-07-11T13:47:01;21.30;73.70
59505;DHT22;45321;53.200;5.814;2022-07-11T13:49:27;21.30;73.50
59505;DHT22;45321;53.200;5.814;2022-07-11T13:51:54;21.30;73.80
59505;DHT22;45321;53.200;5.814;2022-07-11T13:54:20;21.20;73.50
59505;DHT22;45321;53.200;5.814;2022-07-11T13:56:46;21.20;73.40
59505;DHT22;45321;53.200;5.814;2022-07-11T13:59:11;21.30;73.00
59505;DHT22;45321;53.200;5.814;2022-07-11T14:01:37;21.30;73.70
59505;DHT22;45321;53.200;5.814;2022-07-11T14:04:03;21.30;73.80
59505;DHT22;45321;53.200;5.814;2022-07-11T14:06:29;21.30;73.10
59505;DHT22;45321;53.200;5.814;2022-07-11T14:08:55;21.30;72.80
59505;DHT22;45321;53.200;5.814;2022-07-11T14:11:21;21.30;73.00
59505;DHT22;45321;53.200;5.814;2022-07-11T14:13:46;21.30;73.00
59505;DHT22;45321;53.200;5.814;2022-07-11T14:16:12;21.30;72.70
59505;DHT22;45321;53.200;5.814;2022-07-11T14:18:38;21.30;73.30
59505;DHT22;45321;53.200;5.814;2022-07-11T14:21:04;21.40;73.10
59505;DHT22;45321;53.200;5.814;2022-07-11T14:23:29;21.40;73.30
59505;DHT22;45321;53.200;5.814;2022-07-11T14:25:56;21.30;73.50
59505;DHT22;45321;53.200;5.814;2022-07-11T14:28:22;21.40;73.80
59505;DHT22;45321;53.200;5.814;2022-07-11T14:30:48;21.40;73.00
59505;DHT22;45321;53.200;5.814;2022-07-11T14:33:15;21.30;72.90
59505;DHT22;45321;53.200;5.814;2022-07-11T14:35:41;21.30;73.00
59505;DHT22;45321;53.200;5.814;2022-07-11T14:38:10;21.20;72.40
59505;DHT22;45321;53.200;5.814;2022-07-11T14:40:38;21.30;72.80
59505;DHT22;45321;53.200;5.814;2022-07-11T14:43:04;21.30;73.00
59505;DHT22;45321;53.200;5.814;2022-07-11T14:45:29;21.30;72.80
59505;DHT22;45321;53.200;5.814;2022-07-11T14:47:55;21.40;72.70
59505;DHT22;45321;53.200;5.814;2022-07-11T14:50:21;21.40;72.70
59505;DHT22;45321;53.200;5.814;2022-07-11T14:52:46;21.50;72.80
59505;DHT22;45321;53.200;5.814;2022-07-11T14:55:12;21.50;73.10
59505;DHT22;45321;53.200;5.814;2022-07-11T14:57:38;21.50;72.40
59505;DHT22;45321;53.200;5.814;2022-07-11T15:00:04;21.40;72.80
59505;DHT22;45321;53.200;5.814;2022-07-11T15:02:33;21.40;72.70
59505;DHT22;45321;53.200;5.814;2022-07-11T15:05:17;21.30;72.50
59505;DHT22;45321;53.200;5.814;2022-07-11T15:07:46;21.30;72.80
59505;DHT22;45321;53.200;5.814;2022-07-11T15:10:30;21.40;73.00
59505;DHT22;45321;53.200;5.814;2022-07-11T15:13:15;21.40;73.10
59505;DHT22;45321;53.200;5.814;2022-07-11T15:15:40;21.50;72.90
59505;DHT22;45321;53.200;5.814;2022-07-11T15:18:06;21.50;72.50
59505;DHT22;45321;53.200;5.814;2022-07-11T15:20:33;21.50;72.70
59505;DHT22;45321;53.200;5.814;2022-07-11T15:22:58;21.40;72.70
59505;DHT22;45321;53.200;5.814;2022-07-11T15:25:24;21.40;73.20
59505;DHT22;45321;53.200;5.814;2022-07-11T15:27:51;21.30;73.00
59505;DHT22;45321;53.200;5.814;2022-07-11T15:30:16;21.30;72.90
59505;DHT22;45321;53.200;5.814;2022-07-11T15:32:43;21.30;73.10
59505;DHT22;45321;53.200;5.814;2022-07-11T15:35:10;21.30;72.40
59505;DHT22;45321;53.200;5.814;2022-07-11T15:37:35;21.20;72.10
59505;DHT22;45321;53.200;5.814;2022-07-11T15:40:01;21.20;72.60
59505;DHT22;45321;53.200;5.814;2022-07-11T15:42:27;21.20;72.70
59505;DHT22;45321;53.200;5.814;2022-07-11T15:44:53;21.30;72.80
59505;DHT22;45321;53.200;5.814;2022-07-11T15:47:19;21.30;72.70
59505;DHT22;45321;53.200;5.814;2022-07-11T15:49:45;21.30;72.30
59505;DHT22;45321;53.200;5.814;2022-07-11T15:52:10;21.20;72.40
59505;DHT22;45321;53.200;5.814;2022-07-11T15:54:36;21.20;72.00
59505;DHT22;45321;53.200;5.814;2022-07-11T15:57:02;21.30;72.50
59505;DHT22;45321;53.200;5.814;2022-07-11T15:59:28;21.20;72.90
59505;DHT22;45321;53.200;5.814;2022-07-11T16:01:56;21.20;73.00
59505;DHT22;45321;53.200;5.814;2022-07-11T16:04:21;21.20;72.80
59505;DHT22;45321;53.200;5.814;2022-07-11T16:06:47;21.30;72.40
59505;DHT22;45321;53.200;5.814;2022-07-11T16:09:13;21.30;72.60
59505;DHT22;45321;53.200;5.814;2022-07-11T16:11:38;21.20;72.70